Nashville, Tennessee
Traffic Map
Current Weather Conditions
Nashville, Tennessee
Overcast
Overcast
68°
Feels Like: 68°
Wind Chill: 68° Ceiling: 3800
Heat Index: 68° Visibility: 7mi
Dew Point: 66° Wind: 3mph
Humidity: 93% Direction: 150° (SSE)
Pressure: 30.12in Gusts: 0mph
Raw Report DataKBNA 151526Z 15003KT 7SM SCT012 BKN038 OVC065 20/19 A3012 RMK AO2 RAE19 P0000 T02000189
Traffic Incident Summary
Active as of:
Severity:
Category:
InformationThere was an issue retrieving the traffic information for this location. Please try a different location or try again shortly.
Advertisements